Lexington, NE (68850)

5:47 AM CST on February 24, 2017 (GMT -0600)
Kelly | | Change Station
Active Advisory: Winter Weather Advisory

Elev 2411 ft 40.79 °N, 99.78 °W | Updated 12 minutes ago

Light Snow
Light Snow
24 °F
Feels Like 8 °F
N
25
Wind Variable Wind from North
Gusts 33 mph

Today
High -- | Low -- °F
--% Chance of Precip.
Yesterday
High -- | Low -- °F
Precip. -- in
Pressure 29.80 in
Visibility 2.5 miles
Clouds Scattered Clouds 1300 ft
Overcast 2100 ft
Windchill 8 °F
Dew Point 21 °F
Humidity 87%
Rainfall 0.00 in
Snow Depth Not available.
7:19 AM 6:24 PM
Waning Crescent, 5% visible
METAR KLXN 241135Z AUTO 35022G29KT 2 1/2SM -SN SCT013 OVC021 M04/M06 A2980 RMK AO2 T10421061
Pressure 29.80 in
Visibility 2.5 miles
Clouds Scattered Clouds 1300 ft
Overcast 2100 ft
Windchill 8 °F
Dew Point 21 °F
Humidity 87%
Rainfall 0.00 in
Snow Depth Not available.
7:19 AM 6:24 PM
Waning Crescent, 5% visible
METAR KLXN 241135Z AUTO 35022G29KT 2 1/2SM -SN SCT013 OVC021 M04/M06 A2980 RMK AO2 T10421061

Get Your Daily Forecast Email!

Thanks for signing up!

Be on the lookout for a verification email in your inbox.

You'll start receiving the daily forecast at 8 AM.

×

10-Day Weather Forecast

Almanac

Astronomy

Feb. 24, 2017 Rise Set
Actual Time
Civil Twilight
Nautical Twilight
Astronomical Twilight
Moon
Length of Visible Light
Length of Day
Tomorrow will be .
, % of the Moon is Illuminated

Today's Extremes

State Highs State Lows

Community

WunderPhotos

Upload Photos

1,962,540 photos uploaded!

WunderBlog® & News

Nearby

Air Quality

  Air Quality AQ Index Pollutant
Not available.

Snow Depth

Station Depth Elevation

Earthquake Activity

City Distance Mag. Time & Date
Minimum magnitude displayed is 2.5.

Coastal Water Temperatures

Place Temperature

Stations

Nearby Weather Stations

Station Location Temp. Windchill Dew Point Humidity Wind Precip. Elev Updated Type
                   

Watches & Warnings

Winter Weather Advisory
Issued: 3:58 AM CST Feb. 24, 2017 – National Weather Service

... Winter Weather Advisory remains in effect until 6 PM CST this
evening...

* precipitation... some freezing drizzle... 2 to 4 inches snow
total.

* Timing... some freezing drizzle is possible through 9 am...
changing to light snow from northwest to southeast. Light snow
will continue this morning and taper off this afternoon.

* Winds... north at 15 to 25 mph with gusts to around 35 mph.

* Impacts... travel will become dangerous as roads become snow-
covered and slick. Falling and blowing snow will reduce
visibilities. Air travel could also be affected at regional
airports.

Precautionary/preparedness actions...

A Winter Weather Advisory for snow and blowing snow means that
periods of snow and blowing snow will cause primarily travel
difficulties. Be prepared for snow covered roads and limited
visibilities... and use caution while driving.